sensor_id;sensor_type;location;lat;lon;timestamp;P1;durP1;ratioP1;P2;durP2;ratioP2
26530;SDS011;14201;43.188;24.160;2023-11-19T00:02:20;1.63;;;1.35;;
26530;SDS011;14201;43.188;24.160;2023-11-19T00:04:45;1.80;;;1.40;;
26530;SDS011;14201;43.188;24.160;2023-11-19T00:07:11;1.77;;;1.10;;
26530;SDS011;14201;43.188;24.160;2023-11-19T00:09:39;1.60;;;1.20;;
26530;SDS011;14201;43.188;24.160;2023-11-19T00:12:05;3.10;;;1.30;;
26530;SDS011;14201;43.188;24.160;2023-11-19T00:14:32;1.30;;;1.20;;
26530;SDS011;14201;43.188;24.160;2023-11-19T00:16:58;1.50;;;1.20;;
26530;SDS011;14201;43.188;24.160;2023-11-19T00:19:24;1.90;;;1.40;;
26530;SDS011;14201;43.188;24.160;2023-11-19T00:21:51;1.60;;;1.33;;
26530;SDS011;14201;43.188;24.160;2023-11-19T00:24:17;2.65;;;1.25;;
26530;SDS011;14201;43.188;24.160;2023-11-19T00:26:43;2.10;;;1.50;;
26530;SDS011;14201;43.188;24.160;2023-11-19T00:29:09;2.15;;;1.20;;
26530;SDS011;14201;43.188;24.160;2023-11-19T00:31:35;2.05;;;1.38;;
26530;SDS011;14201;43.188;24.160;2023-11-19T00:34:01;1.65;;;1.20;;
26530;SDS011;14201;43.188;24.160;2023-11-19T00:36:28;1.90;;;1.42;;
26530;SDS011;14201;43.188;24.160;2023-11-19T00:38:54;4.32;;;1.35;;
26530;SDS011;14201;43.188;24.160;2023-11-19T00:41:19;1.75;;;1.50;;
26530;SDS011;14201;43.188;24.160;2023-11-19T00:43:46;1.60;;;1.20;;
26530;SDS011;14201;43.188;24.160;2023-11-19T00:46:12;1.45;;;1.30;;
26530;SDS011;14201;43.188;24.160;2023-11-19T00:48:38;2.03;;;1.42;;
26530;SDS011;14201;43.188;24.160;2023-11-19T00:51:04;1.80;;;1.20;;
26530;SDS011;14201;43.188;24.160;2023-11-19T00:53:30;2.50;;;1.65;;
26530;SDS011;14201;43.188;24.160;2023-11-19T00:55:59;1.73;;;1.27;;
26530;SDS011;14201;43.188;24.160;2023-11-19T00:58:25;2.60;;;1.33;;
26530;SDS011;14201;43.188;24.160;2023-11-19T01:00:51;2.33;;;1.92;;
26530;SDS011;14201;43.188;24.160;2023-11-19T01:03:16;2.70;;;1.60;;
26530;SDS011;14201;43.188;24.160;2023-11-19T01:05:42;2.08;;;1.60;;
26530;SDS011;14201;43.188;24.160;2023-11-19T01:08:09;2.00;;;1.60;;
26530;SDS011;14201;43.188;24.160;2023-11-19T01:10:36;4.00;;;1.75;;
26530;SDS011;14201;43.188;24.160;2023-11-19T01:13:02;2.03;;;1.60;;
26530;SDS011;14201;43.188;24.160;2023-11-19T01:15:31;2.22;;;1.30;;
26530;SDS011;14201;43.188;24.160;2023-11-19T01:17:57;2.28;;;1.77;;
26530;SDS011;14201;43.188;24.160;2023-11-19T01:20:22;2.33;;;1.58;;
26530;SDS011;14201;43.188;24.160;2023-11-19T01:22:49;2.08;;;1.60;;
26530;SDS011;14201;43.188;24.160;2023-11-19T01:25:15;6.95;;;1.88;;
26530;SDS011;14201;43.188;24.160;2023-11-19T01:27:41;2.33;;;1.50;;
26530;SDS011;14201;43.188;24.160;2023-11-19T01:30:07;4.13;;;1.95;;
26530;SDS011;14201;43.188;24.160;2023-11-19T01:32:35;1.83;;;1.60;;
26530;SDS011;14201;43.188;24.160;2023-11-19T01:35:02;1.73;;;1.58;;
26530;SDS011;14201;43.188;24.160;2023-11-19T01:37:29;2.47;;;1.60;;
26530;SDS011;14201;43.188;24.160;2023-11-19T01:39:56;1.90;;;1.55;;
26530;SDS011;14201;43.188;24.160;2023-11-19T01:42:22;2.58;;;1.67;;
26530;SDS011;14201;43.188;24.160;2023-11-19T01:45:00;2.83;;;1.67;;
26530;SDS011;14201;43.188;24.160;2023-11-19T01:47:30;2.00;;;1.70;;
26530;SDS011;14201;43.188;24.160;2023-11-19T01:49:56;1.70;;;1.60;;
26530;SDS011;14201;43.188;24.160;2023-11-19T01:52:23;2.30;;;1.63;;
26530;SDS011;14201;43.188;24.160;2023-11-19T01:54:49;2.33;;;1.80;;
26530;SDS011;14201;43.188;24.160;2023-11-19T01:57:15;3.28;;;2.03;;
26530;SDS011;14201;43.188;24.160;2023-11-19T01:59:41;3.15;;;1.80;;
26530;SDS011;14201;43.188;24.160;2023-11-19T02:02:07;4.53;;;1.63;;
26530;SDS011;14201;43.188;24.160;2023-11-19T02:04:33;1.80;;;1.45;;
26530;SDS011;14201;43.188;24.160;2023-11-19T02:07:00;2.35;;;1.63;;
26530;SDS011;14201;43.188;24.160;2023-11-19T02:09:25;2.08;;;1.58;;
26530;SDS011;14201;43.188;24.160;2023-11-19T02:11:52;3.58;;;1.80;;
26530;SDS011;14201;43.188;24.160;2023-11-19T02:14:19;2.22;;;1.70;;
26530;SDS011;14201;43.188;24.160;2023-11-19T02:16:50;2.33;;;1.77;;
26530;SDS011;14201;43.188;24.160;2023-11-19T02:19:20;2.75;;;1.90;;
26530;SDS011;14201;43.188;24.160;2023-11-19T02:21:45;4.43;;;1.80;;
26530;SDS011;14201;43.188;24.160;2023-11-19T02:24:11;2.70;;;1.75;;
26530;SDS011;14201;43.188;24.160;2023-11-19T02:26:47;2.50;;;1.83;;
26530;SDS011;14201;43.188;24.160;2023-11-19T02:29:17;2.22;;;1.70;;
26530;SDS011;14201;43.188;24.160;2023-11-19T02:31:42;2.63;;;1.90;;
26530;SDS011;14201;43.188;24.160;2023-11-19T02:34:10;2.10;;;1.70;;
26530;SDS011;14201;43.188;24.160;2023-11-19T02:36:37;2.72;;;1.70;;
26530;SDS011;14201;43.188;24.160;2023-11-19T02:39:03;3.45;;;2.20;;
26530;SDS011;14201;43.188;24.160;2023-11-19T02:41:28;2.78;;;2.10;;
26530;SDS011;14201;43.188;24.160;2023-11-19T02:43:55;2.05;;;1.70;;
26530;SDS011;14201;43.188;24.160;2023-11-19T02:46:20;2.78;;;2.10;;
26530;SDS011;14201;43.188;24.160;2023-11-19T02:48:46;2.88;;;1.98;;
26530;SDS011;14201;43.188;24.160;2023-11-19T02:51:12;2.42;;;2.10;;
26530;SDS011;14201;43.188;24.160;2023-11-19T02:53:37;2.55;;;2.10;;
26530;SDS011;14201;43.188;24.160;2023-11-19T02:56:05;2.97;;;2.13;;
26530;SDS011;14201;43.188;24.160;2023-11-19T02:58:37;2.95;;;2.20;;
26530;SDS011;14201;43.188;24.160;2023-11-19T03:01:04;2.85;;;2.25;;
26530;SDS011;14201;43.188;24.160;2023-11-19T03:03:38;2.15;;;1.90;;
26530;SDS011;14201;43.188;24.160;2023-11-19T03:06:05;2.50;;;2.10;;
26530;SDS011;14201;43.188;24.160;2023-11-19T03:08:32;2.45;;;2.20;;
26530;SDS011;14201;43.188;24.160;2023-11-19T03:10:58;2.72;;;2.10;;
26530;SDS011;14201;43.188;24.160;2023-11-19T03:13:24;3.00;;;2.10;;
26530;SDS011;14201;43.188;24.160;2023-11-19T03:15:50;2.67;;;2.03;;
26530;SDS011;14201;43.188;24.160;2023-11-19T03:18:16;3.17;;;2.08;;
26530;SDS011;14201;43.188;24.160;2023-11-19T03:20:42;3.10;;;2.25;;
26530;SDS011;14201;43.188;24.160;2023-11-19T03:23:08;3.05;;;2.10;;
26530;SDS011;14201;43.188;24.160;2023-11-19T03:25:33;2.72;;;2.10;;
26530;SDS011;14201;43.188;24.160;2023-11-19T03:28:00;3.33;;;2.10;;
26530;SDS011;14201;43.188;24.160;2023-11-19T03:30:30;2.47;;;1.98;;
26530;SDS011;14201;43.188;24.160;2023-11-19T03:32:56;4.78;;;2.40;;
26530;SDS011;14201;43.188;24.160;2023-11-19T03:35:23;3.13;;;2.08;;
26530;SDS011;14201;43.188;24.160;2023-11-19T03:37:49;2.53;;;2.20;;
26530;SDS011;14201;43.188;24.160;2023-11-19T03:40:16;5.18;;;1.92;;
26530;SDS011;14201;43.188;24.160;2023-11-19T03:42:41;3.42;;;2.08;;
26530;SDS011;14201;43.188;24.160;2023-11-19T03:45:09;2.83;;;2.35;;
26530;SDS011;14201;43.188;24.160;2023-11-19T03:47:35;3.75;;;2.25;;
26530;SDS011;14201;43.188;24.160;2023-11-19T03:50:01;2.58;;;2.10;;
26530;SDS011;14201;43.188;24.160;2023-11-19T03:52:27;2.90;;;2.13;;
26530;SDS011;14201;43.188;24.160;2023-11-19T03:54:54;3.78;;;2.50;;
26530;SDS011;14201;43.188;24.160;2023-11-19T03:57:23;3.42;;;2.20;;
26530;SDS011;14201;43.188;24.160;2023-11-19T03:59:49;3.15;;;2.60;;
26530;SDS011;14201;43.188;24.160;2023-11-19T04:02:15;2.70;;;2.03;;
26530;SDS011;14201;43.188;24.160;2023-11-19T04:04:41;3.08;;;2.38;;
26530;SDS011;14201;43.188;24.160;2023-11-19T04:07:07;3.28;;;2.30;;
26530;SDS011;14201;43.188;24.160;2023-11-19T04:09:33;2.40;;;1.98;;
26530;SDS011;14201;43.188;24.160;2023-11-19T04:11:59;3.28;;;2.30;;
26530;SDS011;14201;43.188;24.160;2023-11-19T04:14:25;3.03;;;2.33;;
26530;SDS011;14201;43.188;24.160;2023-11-19T04:16:51;3.00;;;2.50;;
26530;SDS011;14201;43.188;24.160;2023-11-19T04:19:18;3.08;;;2.28;;
26530;SDS011;14201;43.188;24.160;2023-11-19T04:21:44;2.65;;;2.33;;
26530;SDS011;14201;43.188;24.160;2023-11-19T04:24:09;3.50;;;2.47;;
26530;SDS011;14201;43.188;24.160;2023-11-19T04:26:41;3.60;;;2.40;;
26530;SDS011;14201;43.188;24.160;2023-11-19T04:29:11;2.58;;;2.13;;
26530;SDS011;14201;43.188;24.160;2023-11-19T04:31:42;2.70;;;2.30;;
26530;SDS011;14201;43.188;24.160;2023-11-19T04:34:09;3.33;;;2.50;;
26530;SDS011;14201;43.188;24.160;2023-11-19T04:36:36;2.40;;;2.20;;
26530;SDS011;14201;43.188;24.160;2023-11-19T04:39:02;6.72;;;2.47;;
26530;SDS011;14201;43.188;24.160;2023-11-19T04:41:34;3.40;;;2.30;;
26530;SDS011;14201;43.188;24.160;2023-11-19T04:43:59;3.45;;;2.53;;
26530;SDS011;14201;43.188;24.160;2023-11-19T04:46:25;2.95;;;2.15;;
26530;SDS011;14201;43.188;24.160;2023-11-19T04:48:51;2.90;;;2.20;;
26530;SDS011;14201;43.188;24.160;2023-11-19T04:51:16;2.97;;;2.20;;
26530;SDS011;14201;43.188;24.160;2023-11-19T04:53:42;3.20;;;2.28;;
26530;SDS011;14201;43.188;24.160;2023-11-19T04:56:08;2.95;;;2.30;;
26530;SDS011;14201;43.188;24.160;2023-11-19T04:58:34;2.28;;;2.00;;
26530;SDS011;14201;43.188;24.160;2023-11-19T05:01:02;2.60;;;2.28;;
26530;SDS011;14201;43.188;24.160;2023-11-19T05:03:29;5.07;;;2.20;;
26530;SDS011;14201;43.188;24.160;2023-11-19T05:05:58;3.40;;;2.15;;
26530;SDS011;14201;43.188;24.160;2023-11-19T05:08:24;2.92;;;2.10;;
26530;SDS011;14201;43.188;24.160;2023-11-19T05:10:50;3.03;;;2.38;;
26530;SDS011;14201;43.188;24.160;2023-11-19T05:13:15;4.03;;;2.17;;
26530;SDS011;14201;43.188;24.160;2023-11-19T05:15:42;3.00;;;2.40;;
26530;SDS011;14201;43.188;24.160;2023-11-19T05:18:07;2.80;;;2.30;;
26530;SDS011;14201;43.188;24.160;2023-11-19T05:20:34;3.55;;;2.15;;
26530;SDS011;14201;43.188;24.160;2023-11-19T05:22:59;5.10;;;2.15;;
26530;SDS011;14201;43.188;24.160;2023-11-19T05:25:26;3.45;;;2.25;;
26530;SDS011;14201;43.188;24.160;2023-11-19T05:27:52;2.95;;;2.38;;
26530;SDS011;14201;43.188;24.160;2023-11-19T05:30:18;3.70;;;2.50;;
26530;SDS011;14201;43.188;24.160;2023-11-19T05:32:44;2.85;;;2.38;;
26530;SDS011;14201;43.188;24.160;2023-11-19T05:35:10;2.67;;;2.03;;
26530;SDS011;14201;43.188;24.160;2023-11-19T05:37:36;2.80;;;2.40;;
26530;SDS011;14201;43.188;24.160;2023-11-19T05:40:02;2.80;;;2.28;;
26530;SDS011;14201;43.188;24.160;2023-11-19T05:42:34;2.63;;;2.13;;
26530;SDS011;14201;43.188;24.160;2023-11-19T05:45:02;2.83;;;2.05;;
26530;SDS011;14201;43.188;24.160;2023-11-19T05:47:28;2.67;;;2.10;;
26530;SDS011;14201;43.188;24.160;2023-11-19T05:49:54;2.70;;;2.10;;
26530;SDS011;14201;43.188;24.160;2023-11-19T05:52:19;2.53;;;2.10;;
26530;SDS011;14201;43.188;24.160;2023-11-19T05:54:47;3.80;;;2.60;;
26530;SDS011;14201;43.188;24.160;2023-11-19T05:57:16;3.28;;;1.63;;
26530;SDS011;14201;43.188;24.160;2023-11-19T05:59:47;2.85;;;2.10;;
26530;SDS011;14201;43.188;24.160;2023-11-19T06:02:13;3.30;;;2.15;;
26530;SDS011;14201;43.188;24.160;2023-11-19T06:04:39;2.25;;;2.05;;
26530;SDS011;14201;43.188;24.160;2023-11-19T06:07:06;2.42;;;1.98;;
26530;SDS011;14201;43.188;24.160;2023-11-19T06:09:32;4.25;;;2.25;;
26530;SDS011;14201;43.188;24.160;2023-11-19T06:11:59;3.15;;;2.08;;
26530;SDS011;14201;43.188;24.160;2023-11-19T06:14:27;2.40;;;1.80;;
26530;SDS011;14201;43.188;24.160;2023-11-19T06:16:52;3.63;;;2.00;;
26530;SDS011;14201;43.188;24.160;2023-11-19T06:19:18;2.45;;;2.08;;
26530;SDS011;14201;43.188;24.160;2023-11-19T06:21:44;2.35;;;2.10;;
26530;SDS011;14201;43.188;24.160;2023-11-19T06:24:09;4.95;;;2.28;;
26530;SDS011;14201;43.188;24.160;2023-11-19T06:26:35;2.55;;;1.92;;
26530;SDS011;14201;43.188;24.160;2023-11-19T06:29:01;2.40;;;2.17;;
26530;SDS011;14201;43.188;24.160;2023-11-19T06:31:26;2.10;;;1.70;;
26530;SDS011;14201;43.188;24.160;2023-11-19T06:33:52;2.08;;;1.77;;
26530;SDS011;14201;43.188;24.160;2023-11-19T06:36:18;2.67;;;2.00;;
26530;SDS011;14201;43.188;24.160;2023-11-19T06:38:44;2.78;;;1.80;;
26530;SDS011;14201;43.188;24.160;2023-11-19T06:41:09;3.67;;;1.85;;
26530;SDS011;14201;43.188;24.160;2023-11-19T06:43:36;2.75;;;2.20;;
26530;SDS011;14201;43.188;24.160;2023-11-19T06:46:02;2.65;;;1.70;;
26530;SDS011;14201;43.188;24.160;2023-11-19T06:48:31;2.10;;;1.75;;
26530;SDS011;14201;43.188;24.160;2023-11-19T06:50:57;2.67;;;1.98;;
26530;SDS011;14201;43.188;24.160;2023-11-19T06:53:23;2.42;;;1.80;;
26530;SDS011;14201;43.188;24.160;2023-11-19T06:55:49;4.20;;;1.92;;
26530;SDS011;14201;43.188;24.160;2023-11-19T06:58:15;2.45;;;1.90;;
26530;SDS011;14201;43.188;24.160;2023-11-19T07:00:40;3.58;;;1.80;;
26530;SDS011;14201;43.188;24.160;2023-11-19T07:03:06;2.20;;;1.77;;
26530;SDS011;14201;43.188;24.160;2023-11-19T07:05:35;2.45;;;1.58;;
26530;SDS011;14201;43.188;24.160;2023-11-19T07:08:03;3.38;;;1.88;;
26530;SDS011;14201;43.188;24.160;2023-11-19T07:10:32;2.42;;;1.67;;
26530;SDS011;14201;43.188;24.160;2023-11-19T07:12:59;2.40;;;1.92;;
26530;SDS011;14201;43.188;24.160;2023-11-19T07:15:25;2.30;;;1.95;;
26530;SDS011;14201;43.188;24.160;2023-11-19T07:17:51;2.30;;;1.73;;
26530;SDS011;14201;43.188;24.160;2023-11-19T07:20:16;1.92;;;1.60;;
26530;SDS011;14201;43.188;24.160;2023-11-19T07:22:43;2.45;;;1.77;;
26530;SDS011;14201;43.188;24.160;2023-11-19T07:25:12;2.08;;;1.70;;
26530;SDS011;14201;43.188;24.160;2023-11-19T07:27:38;2.92;;;1.92;;
26530;SDS011;14201;43.188;24.160;2023-11-19T07:30:05;2.78;;;1.90;;
26530;SDS011;14201;43.188;24.160;2023-11-19T07:32:32;2.03;;;1.67;;
26530;SDS011;14201;43.188;24.160;2023-11-19T07:34:58;2.13;;;1.63;;
26530;SDS011;14201;43.188;24.160;2023-11-19T07:37:24;3.60;;;1.85;;
26530;SDS011;14201;43.188;24.160;2023-11-19T07:39:50;2.10;;;1.70;;
26530;SDS011;14201;43.188;24.160;2023-11-19T07:42:16;2.33;;;1.60;;
26530;SDS011;14201;43.188;24.160;2023-11-19T07:44:42;3.00;;;1.88;;
26530;SDS011;14201;43.188;24.160;2023-11-19T07:47:09;2.88;;;1.90;;
26530;SDS011;14201;43.188;24.160;2023-11-19T07:49:35;1.85;;;1.52;;
26530;SDS011;14201;43.188;24.160;2023-11-19T07:52:00;4.55;;;3.17;;
26530;SDS011;14201;43.188;24.160;2023-11-19T07:54:28;3.35;;;1.90;;
26530;SDS011;14201;43.188;24.160;2023-11-19T07:56:54;2.38;;;1.77;;
26530;SDS011;14201;43.188;24.160;2023-11-19T07:59:20;2.38;;;1.73;;
26530;SDS011;14201;43.188;24.160;2023-11-19T08:01:46;1.85;;;1.73;;
26530;SDS011;14201;43.188;24.160;2023-11-19T08:04:12;3.33;;;2.10;;
26530;SDS011;14201;43.188;24.160;2023-11-19T08:06:37;2.42;;;1.95;;
26530;SDS011;14201;43.188;24.160;2023-11-19T08:09:03;2.28;;;1.88;;
26530;SDS011;14201;43.188;24.160;2023-11-19T08:11:29;3.15;;;1.65;;
26530;SDS011;14201;43.188;24.160;2023-11-19T08:13:55;2.25;;;1.65;;
26530;SDS011;14201;43.188;24.160;2023-11-19T08:16:20;2.40;;;1.70;;
26530;SDS011;14201;43.188;24.160;2023-11-19T08:21:11;1.95;;;1.65;;
26530;SDS011;14201;43.188;24.160;2023-11-19T08:23:37;3.05;;;1.80;;
26530;SDS011;14201;43.188;24.160;2023-11-19T08:28:29;1.90;;;1.70;;
26530;SDS011;14201;43.188;24.160;2023-11-19T08:30:56;2.95;;;1.75;;
26530;SDS011;14201;43.188;24.160;2023-11-19T08:33:22;2.65;;;1.85;;
26530;SDS011;14201;43.188;24.160;2023-11-19T08:35:48;3.00;;;1.90;;
26530;SDS011;14201;43.188;24.160;2023-11-19T08:38:13;4.43;;;2.10;;
26530;SDS011;14201;43.188;24.160;2023-11-19T08:40:39;3.55;;;1.90;;
26530;SDS011;14201;43.188;24.160;2023-11-19T08:43:05;2.55;;;1.90;;
26530;SDS011;14201;43.188;24.160;2023-11-19T08:45:31;3.80;;;1.70;;
26530;SDS011;14201;43.188;24.160;2023-11-19T08:47:57;1.70;;;1.60;;
26530;SDS011;14201;43.188;24.160;2023-11-19T08:50:22;2.93;;;2.00;;
26530;SDS011;14201;43.188;24.160;2023-11-19T08:52:49;2.40;;;1.90;;
26530;SDS011;14201;43.188;24.160;2023-11-19T08:55:14;2.17;;;1.80;;
26530;SDS011;14201;43.188;24.160;2023-11-19T08:57:40;2.27;;;1.70;;
26530;SDS011;14201;43.188;24.160;2023-11-19T09:00:06;2.55;;;1.85;;
26530;SDS011;14201;43.188;24.160;2023-11-19T09:02:33;2.65;;;2.03;;
26530;SDS011;14201;43.188;24.160;2023-11-19T09:05:05;2.17;;;1.88;;
26530;SDS011;14201;43.188;24.160;2023-11-19T09:07:32;3.47;;;1.77;;
26530;SDS011;14201;43.188;24.160;2023-11-19T09:09:58;2.83;;;2.00;;
26530;SDS011;14201;43.188;24.160;2023-11-19T09:12:24;1.80;;;1.60;;
26530;SDS011;14201;43.188;24.160;2023-11-19T09:14:49;2.20;;;1.60;;
26530;SDS011;14201;43.188;24.160;2023-11-19T09:17:15;2.72;;;1.80;;
26530;SDS011;14201;43.188;24.160;2023-11-19T09:19:42;3.63;;;2.17;;
26530;SDS011;14201;43.188;24.160;2023-11-19T09:22:08;2.85;;;2.10;;
26530;SDS011;14201;43.188;24.160;2023-11-19T09:24:33;2.50;;;2.05;;
26530;SDS011;14201;43.188;24.160;2023-11-19T09:29:25;4.68;;;1.80;;
26530;SDS011;14201;43.188;24.160;2023-11-19T09:31:51;2.72;;;2.08;;
26530;SDS011;14201;43.188;24.160;2023-11-19T09:34:16;2.40;;;1.80;;
26530;SDS011;14201;43.188;24.160;2023-11-19T14:17:39;3.42;;;2.30;;
26530;SDS011;14201;43.188;24.160;2023-11-19T14:20:05;1.83;;;1.60;;
26530;SDS011;14201;43.188;24.160;2023-11-19T14:39:47;1.88;;;1.40;;
26530;SDS011;14201;43.188;24.160;2023-11-19T14:42:15;1.88;;;1.48;;
26530;SDS011;14201;43.188;24.160;2023-11-19T14:44:40;1.92;;;1.65;;
26530;SDS011;14201;43.188;24.160;2023-11-19T14:47:06;2.35;;;1.70;;
26530;SDS011;14201;43.188;24.160;2023-11-19T14:49:34;1.90;;;1.60;;
26530;SDS011;14201;43.188;24.160;2023-11-19T14:52:00;2.45;;;1.67;;
26530;SDS011;14201;43.188;24.160;2023-11-19T14:54:26;2.67;;;2.20;;
26530;SDS011;14201;43.188;24.160;2023-11-19T14:56:51;4.38;;;1.80;;
26530;SDS011;14201;43.188;24.160;2023-11-19T14:59:17;1.90;;;1.70;;
26530;SDS011;14201;43.188;24.160;2023-11-19T15:01:44;2.65;;;2.00;;
26530;SDS011;14201;43.188;24.160;2023-11-19T15:04:11;3.58;;;2.67;;
26530;SDS011;14201;43.188;24.160;2023-11-19T15:06:37;3.10;;;2.30;;
26530;SDS011;14201;43.188;24.160;2023-11-19T15:09:03;4.10;;;2.60;;
26530;SDS011;14201;43.188;24.160;2023-11-19T15:11:29;3.08;;;2.70;;
26530;SDS011;14201;43.188;24.160;2023-11-19T15:13:55;3.10;;;2.50;;
26530;SDS011;14201;43.188;24.160;2023-11-19T15:16:21;3.90;;;2.90;;
26530;SDS011;14201;43.188;24.160;2023-11-19T15:18:56;2.97;;;2.67;;
26530;SDS011;14201;43.188;24.160;2023-11-19T15:21:25;4.15;;;2.90;;
26530;SDS011;14201;43.188;24.160;2023-11-19T15:23:52;4.75;;;2.70;;
26530;SDS011;14201;43.188;24.160;2023-11-19T15:26:18;4.05;;;2.72;;
26530;SDS011;14201;43.188;24.160;2023-11-19T15:28:44;3.08;;;2.63;;
26530;SDS011;14201;43.188;24.160;2023-11-19T15:31:10;4.18;;;2.88;;
26530;SDS011;14201;43.188;24.160;2023-11-19T15:33:35;4.78;;;3.47;;
26530;SDS011;14201;43.188;24.160;2023-11-19T15:36:01;4.07;;;3.35;;
26530;SDS011;14201;43.188;24.160;2023-11-19T15:38:35;3.25;;;2.90;;
26530;SDS011;14201;43.188;24.160;2023-11-19T15:41:01;4.88;;;3.17;;
26530;SDS011;14201;43.188;24.160;2023-11-19T15:43:27;4.18;;;3.55;;
26530;SDS011;14201;43.188;24.160;2023-11-19T15:45:54;6.03;;;3.80;;
26530;SDS011;14201;43.188;24.160;2023-11-19T15:48:20;8.60;;;4.05;;
26530;SDS011;14201;43.188;24.160;2023-11-19T15:50:47;4.32;;;3.50;;
26530;SDS011;14201;43.188;24.160;2023-11-19T15:53:12;4.63;;;3.97;;
26530;SDS011;14201;43.188;24.160;2023-11-19T15:55:38;4.13;;;3.72;;
26530;SDS011;14201;43.188;24.160;2023-11-19T15:58:04;4.40;;;3.47;;
26530;SDS011;14201;43.188;24.160;2023-11-19T16:00:30;4.72;;;3.10;;
26530;SDS011;14201;43.188;24.160;2023-11-19T16:02:56;3.50;;;3.20;;
26530;SDS011;14201;43.188;24.160;2023-11-19T16:05:22;4.18;;;3.20;;
26530;SDS011;14201;43.188;24.160;2023-11-19T16:07:51;4.35;;;3.38;;
26530;SDS011;14201;43.188;24.160;2023-11-19T16:10:17;4.25;;;3.50;;
26530;SDS011;14201;43.188;24.160;2023-11-19T16:12:45;5.07;;;3.70;;
26530;SDS011;14201;43.188;24.160;2023-11-19T16:15:14;4.75;;;3.40;;
26530;SDS011;14201;43.188;24.160;2023-11-19T16:17:40;3.50;;;2.90;;
26530;SDS011;14201;43.188;24.160;2023-11-19T16:20:07;4.68;;;3.63;;
26530;SDS011;14201;43.188;24.160;2023-11-19T16:22:38;3.55;;;3.25;;
26530;SDS011;14201;43.188;24.160;2023-11-19T16:25:04;4.10;;;3.30;;
26530;SDS011;14201;43.188;24.160;2023-11-19T16:27:31;4.30;;;3.42;;
26530;SDS011;14201;43.188;24.160;2023-11-19T16:29:57;3.83;;;3.28;;
26530;SDS011;14201;43.188;24.160;2023-11-19T16:32:24;3.42;;;3.00;;
26530;SDS011;14201;43.188;24.160;2023-11-19T16:34:50;4.30;;;3.40;;
26530;SDS011;14201;43.188;24.160;2023-11-19T16:37:16;3.08;;;2.78;;
26530;SDS011;14201;43.188;24.160;2023-11-19T16:39:42;3.47;;;3.17;;
26530;SDS011;14201;43.188;24.160;2023-11-19T16:42:08;4.35;;;3.35;;
26530;SDS011;14201;43.188;24.160;2023-11-19T16:44:35;4.32;;;3.05;;
26530;SDS011;14201;43.188;24.160;2023-11-19T16:47:01;4.10;;;3.38;;
26530;SDS011;14201;43.188;24.160;2023-11-19T16:49:26;5.40;;;3.47;;
26530;SDS011;14201;43.188;24.160;2023-11-19T16:51:52;4.03;;;3.35;;
26530;SDS011;14201;43.188;24.160;2023-11-19T16:54:18;4.70;;;3.50;;
26530;SDS011;14201;43.188;24.160;2023-11-19T16:56:44;4.95;;;3.13;;
26530;SDS011;14201;43.188;24.160;2023-11-19T16:59:10;4.40;;;3.33;;
26530;SDS011;14201;43.188;24.160;2023-11-19T17:01:36;4.50;;;3.72;;
26530;SDS011;14201;43.188;24.160;2023-11-19T17:04:05;3.28;;;2.97;;
26530;SDS011;14201;43.188;24.160;2023-11-19T17:06:33;3.92;;;3.10;;
26530;SDS011;14201;43.188;24.160;2023-11-19T17:09:05;3.50;;;3.10;;
26530;SDS011;14201;43.188;24.160;2023-11-19T17:11:30;3.35;;;2.58;;
26530;SDS011;14201;43.188;24.160;2023-11-19T17:13:57;4.10;;;3.20;;
26530;SDS011;14201;43.188;24.160;2023-11-19T17:16:22;5.82;;;3.13;;
26530;SDS011;14201;43.188;24.160;2023-11-19T17:18:48;4.05;;;2.97;;
26530;SDS011;14201;43.188;24.160;2023-11-19T17:21:14;3.80;;;3.30;;
26530;SDS011;14201;43.188;24.160;2023-11-19T17:23:40;4.03;;;2.90;;
26530;SDS011;14201;43.188;24.160;2023-11-19T17:26:06;3.88;;;3.13;;
26530;SDS011;14201;43.188;24.160;2023-11-19T17:28:32;3.90;;;3.50;;
26530;SDS011;14201;43.188;24.160;2023-11-19T17:31:00;5.57;;;3.85;;
26530;SDS011;14201;43.188;24.160;2023-11-19T17:33:26;5.75;;;3.40;;
26530;SDS011;14201;43.188;24.160;2023-11-19T17:35:52;4.13;;;3.45;;
26530;SDS011;14201;43.188;24.160;2023-11-19T17:38:18;5.10;;;3.65;;
26530;SDS011;14201;43.188;24.160;2023-11-19T17:40:46;4.57;;;3.83;;
26530;SDS011;14201;43.188;24.160;2023-11-19T17:43:15;4.55;;;3.92;;
26530;SDS011;14201;43.188;24.160;2023-11-19T17:45:44;6.72;;;4.15;;
26530;SDS011;14201;43.188;24.160;2023-11-19T17:48:09;4.47;;;3.63;;
26530;SDS011;14201;43.188;24.160;2023-11-19T17:50:36;4.82;;;4.03;;
26530;SDS011;14201;43.188;24.160;2023-11-19T17:53:02;4.22;;;3.70;;
26530;SDS011;14201;43.188;24.160;2023-11-19T17:55:28;3.95;;;3.50;;
26530;SDS011;14201;43.188;24.160;2023-11-19T17:57:54;4.43;;;3.65;;
26530;SDS011;14201;43.188;24.160;2023-11-19T18:00:20;5.03;;;3.92;;
26530;SDS011;14201;43.188;24.160;2023-11-19T18:02:46;4.55;;;3.78;;
26530;SDS011;14201;43.188;24.160;2023-11-19T18:05:17;7.50;;;3.90;;
26530;SDS011;14201;43.188;24.160;2023-11-19T18:07:45;4.90;;;3.80;;
26530;SDS011;14201;43.188;24.160;2023-11-19T18:10:11;4.78;;;3.83;;
26530;SDS011;14201;43.188;24.160;2023-11-19T18:12:37;4.65;;;3.67;;
26530;SDS011;14201;43.188;24.160;2023-11-19T18:15:06;4.32;;;3.53;;
26530;SDS011;14201;43.188;24.160;2023-11-19T18:17:33;3.75;;;3.35;;
26530;SDS011;14201;43.188;24.160;2023-11-19T18:20:00;4.13;;;3.22;;
26530;SDS011;14201;43.188;24.160;2023-11-19T18:22:26;3.67;;;3.10;;
26530;SDS011;14201;43.188;24.160;2023-11-19T18:24:52;4.28;;;3.60;;
26530;SDS011;14201;43.188;24.160;2023-11-19T18:27:18;6.22;;;3.80;;
26530;SDS011;14201;43.188;24.160;2023-11-19T18:29:45;4.53;;;3.45;;
26530;SDS011;14201;43.188;24.160;2023-11-19T18:32:12;4.22;;;3.67;;
26530;SDS011;14201;43.188;24.160;2023-11-19T18:34:38;5.68;;;4.25;;
26530;SDS011;14201;43.188;24.160;2023-11-19T18:37:07;5.18;;;4.07;;
26530;SDS011;14201;43.188;24.160;2023-11-19T18:39:33;4.55;;;3.72;;
26530;SDS011;14201;43.188;24.160;2023-11-19T18:41:59;5.72;;;4.30;;
26530;SDS011;14201;43.188;24.160;2023-11-19T18:44:25;5.50;;;3.97;;
26530;SDS011;14201;43.188;24.160;2023-11-19T18:46:51;5.40;;;4.18;;
26530;SDS011;14201;43.188;24.160;2023-11-19T18:49:16;4.75;;;4.03;;
26530;SDS011;14201;43.188;24.160;2023-11-19T18:51:42;7.32;;;4.18;;
26530;SDS011;14201;43.188;24.160;2023-11-19T18:54:07;4.25;;;3.20;;
26530;SDS011;14201;43.188;24.160;2023-11-19T18:56:34;4.97;;;3.60;;
26530;SDS011;14201;43.188;24.160;2023-11-19T18:58:59;4.68;;;3.50;;
26530;SDS011;14201;43.188;24.160;2023-11-19T19:01:25;5.00;;;3.83;;
26530;SDS011;14201;43.188;24.160;2023-11-19T19:03:54;4.60;;;3.70;;
26530;SDS011;14201;43.188;24.160;2023-11-19T19:06:20;5.10;;;4.22;;
26530;SDS011;14201;43.188;24.160;2023-11-19T19:08:46;4.57;;;3.90;;
26530;SDS011;14201;43.188;24.160;2023-11-19T19:11:15;5.50;;;4.38;;
26530;SDS011;14201;43.188;24.160;2023-11-19T19:13:44;5.40;;;4.38;;
26530;SDS011;14201;43.188;24.160;2023-11-19T19:16:10;7.00;;;4.60;;
26530;SDS011;14201;43.188;24.160;2023-11-19T19:18:37;5.00;;;4.07;;
26530;SDS011;14201;43.188;24.160;2023-11-19T19:21:03;6.57;;;4.45;;
26530;SDS011;14201;43.188;24.160;2023-11-19T19:23:29;5.38;;;4.45;;
26530;SDS011;14201;43.188;24.160;2023-11-19T19:25:55;5.70;;;4.05;;
26530;SDS011;14201;43.188;24.160;2023-11-19T19:28:22;5.45;;;4.28;;
26530;SDS011;14201;43.188;24.160;2023-11-19T19:30:48;6.38;;;4.75;;
26530;SDS011;14201;43.188;24.160;2023-11-19T19:33:14;8.05;;;4.55;;
26530;SDS011;14201;43.188;24.160;2023-11-19T19:35:39;5.35;;;4.03;;